イヌヴィック の空港の天気 - METARとTAF

イヌヴィック空港 ( CYEV / YEV ) - カナダ ノースウエスト準州イヌヴィック
飛行場実況気象(Metar)
観測時間08/25 13:00 MDT (08/25 19:00 UTC)
風向・風速北北東 2m/s
視程10km以上
天気現象
少しの雲 雲底高度 910m
全天の8割程度の雲 雲底高度 3350m
全天の8割程度の雲 雲底高度 6400m
気温13℃
湿度47%
気圧1007.2hPa
METARCYEV 251900Z 03003KT 280V070 15SM FEW030 BKN110 BKN210 13/02 A2973 RMK SC1AC5CI2 SC TR SLP072 DENSITY ALT 300FT
過去の天気等 Google飛行場航空写真 Wunderground天気予報

過去48時間のMETAR

飛行場予報(TAF)
発表時間: 8/25 12:38 MDT (8/25 18:38 UTC)
予報対象時間: 25日13時 MDT ~ 26日1時 MDT
風向・風速不定 2m/s
視程10km以上
全天の8割程度の雲 雲底高度 4880m
25日15時 MDT から
風向・風速不定 2m/s
視程10km以上
全天の8割程度の雲 雲底高度 2440m
TAF CYEV 251838Z 2519/2607 VRB03KT P6SM BKN160
FM252100 VRB03KT P6SM BKN080 RMK NXT FCST BY 260100Z